Time;durP1;ratioP1;P1;durP2;ratioP2;P2;SDS_P1;SDS_P2;PMS_P1;PMS_P2;Temp;Humidity;BMP_temperature;BMP_pressure;BME280_temperature;BME280_humidity;BME280_pressure;Samples;Min_cycle;Max_cycle;Signal;HPM_P1;HPM_P2
2021/03/01 00:00:35;;;;;;;17.45;7.45;;;5.30;84.40;;;;;;4999324;28;20556;-59
2021/03/01 00:03:00;;;;;;;18.42;8.20;;;5.30;84.40;;;;;;4999004;28;20045;-59
2021/03/01 00:05:26;;;;;;;16.92;8.13;;;5.20;84.70;;;;;;4998419;28;20811;-59
2021/03/01 00:07:52;;;;;;;15.90;7.57;;;5.20;85.10;;;;;;4981001;28;20034;-59
2021/03/01 00:10:18;;;;;;;16.65;8.32;;;5.20;85.10;;;;;;4998674;28;20038;-59
2021/03/01 00:12:44;;;;;;;11.90;6.82;;;5.20;85.30;;;;;;4997875;28;20034;-59
2021/03/01 00:15:14;;;;;;;17.52;7.65;;;5.20;85.20;;;;;;4998795;28;20050;-60
2021/03/01 00:17:40;;;;;;;17.20;7.80;;;5.10;85.10;;;;;;4998474;28;20045;-59
2021/03/01 00:20:07;;;;;;;15.93;7.43;;;5.10;85.00;;;;;;4997986;28;20722;-59
2021/03/01 00:22:34;;;;;;;16.63;8.05;;;5.10;85.10;;;;;;4998074;28;20038;-60
2021/03/01 00:24:59;;;;;;;13.10;7.07;;;5.20;85.00;;;;;;4997751;28;20041;-59
2021/03/01 00:27:25;;;;;;;14.20;6.80;;;5.20;84.70;;;;;;4997298;28;20034;-59
2021/03/01 00:29:50;;;;;;;17.20;8.15;;;5.20;84.60;;;;;;4997957;28;20042;-60
2021/03/01 00:32:16;;;;;;;16.80;8.60;;;5.20;84.50;;;;;;4998371;28;20033;-60
2021/03/01 00:34:42;;;;;;;12.15;6.45;;;5.20;84.20;;;;;;4996542;28;20101;-59
2021/03/01 00:37:07;;;;;;;15.60;7.20;;;5.30;84.00;;;;;;4995205;28;20135;-59
2021/03/01 00:39:33;;;;;;;22.15;9.20;;;5.30;84.30;;;;;;4998371;28;20029;-60
2021/03/01 00:41:59;;;;;;;15.90;7.38;;;5.30;84.20;;;;;;4997906;28;20199;-59
2021/03/01 00:44:25;;;;;;;16.25;7.90;;;5.30;84.20;;;;;;4979884;28;20049;-60
2021/03/01 00:46:50;;;;;;;17.20;7.60;;;5.30;84.50;;;;;;4997857;28;20053;-59
2021/03/01 00:49:16;;;;;;;15.98;7.70;;;5.40;84.50;;;;;;4979856;28;20081;-59
2021/03/01 00:51:42;;;;;;;16.17;7.25;;;5.40;84.00;;;;;;4979810;28;20070;-59
2021/03/01 00:54:08;;;;;;;14.88;7.07;;;5.40;84.00;;;;;;4980758;28;20033;-59
2021/03/01 00:56:47;;;;;;;15.73;7.20;;;5.40;83.90;;;;;;4979015;28;20034;-59
2021/03/01 00:59:13;;;;;;;16.85;7.22;;;5.50;84.00;;;;;;4997963;28;20041;-60
2021/03/01 01:01:39;;;;;;;15.70;7.00;;;5.50;83.90;;;;;;4980002;28;20030;-60
2021/03/01 01:04:04;;;;;;;18.75;7.50;;;5.50;83.90;;;;;;4979219;28;20115;-60
2021/03/01 01:06:32;;;;;;;14.30;7.28;;;5.50;83.70;;;;;;4979123;28;20041;-59
2021/03/01 01:08:57;;;;;;;15.57;7.60;;;5.50;83.50;;;;;;4997568;28;20478;-60
2021/03/01 01:11:23;;;;;;;13.57;7.03;;;5.60;83.50;;;;;;4994065;28;20030;-59
2021/03/01 01:13:49;;;;;;;13.65;7.30;;;5.60;83.50;;;;;;4994788;28;20402;-59
2021/03/01 01:16:15;;;;;;;15.60;7.10;;;5.60;83.40;;;;;;4997492;28;20052;-60
2021/03/01 01:18:40;;;;;;;18.85;7.43;;;5.60;83.00;;;;;;4996672;28;20025;-59
2021/03/01 01:21:06;;;;;;;14.85;7.90;;;5.60;83.10;;;;;;4997040;28;20026;-60
2021/03/01 01:23:32;;;;;;;17.35;8.85;;;5.60;82.90;;;;;;4997193;28;20108;-60
2021/03/01 01:25:57;;;;;;;19.65;7.95;;;5.70;83.00;;;;;;4996788;28;20116;-59
2021/03/01 01:28:23;;;;;;;18.73;8.70;;;5.60;83.30;;;;;;4997237;28;20026;-60
2021/03/01 01:30:49;;;;;;;18.25;8.93;;;5.70;83.30;;;;;;4997822;28;20429;-59
2021/03/01 01:33:15;;;;;;;15.73;7.28;;;5.70;83.10;;;;;;4997279;28;20048;-60
2021/03/01 01:35:40;;;;;;;18.27;7.95;;;5.70;83.10;;;;;;4979780;28;20069;-60
2021/03/01 01:38:06;;;;;;;16.52;7.70;;;5.70;83.00;;;;;;4997322;28;20045;-59
2021/03/01 01:40:32;;;;;;;21.58;8.02;;;5.70;83.00;;;;;;4996823;28;20453;-60
2021/03/01 01:42:58;;;;;;;13.75;7.55;;;5.70;82.90;;;;;;4996783;28;20041;-59
2021/03/01 01:45:25;;;;;;;17.45;8.43;;;5.70;82.90;;;;;;4997081;28;20034;-60
2021/03/01 01:47:52;;;;;;;22.27;8.68;;;5.70;82.80;;;;;;4996748;28;20042;-60
2021/03/01 01:50:25;;;;;;;20.92;8.90;;;5.70;83.00;;;;;;4996245;28;20033;-60
2021/03/01 01:52:53;;;;;;;19.77;8.60;;;5.60;83.20;;;;;;4996454;28;20835;-60
2021/03/01 01:55:20;;;;;;;15.57;7.63;;;5.60;83.20;;;;;;4995839;28;20049;-59
2021/03/01 01:57:46;;;;;;;16.10;7.32;;;5.60;83.30;;;;;;4995907;28;20032;-58
2021/03/01 02:00:45;;;;;;;23.60;8.82;;;5.60;83.60;;;;;;4995459;28;20518;-59
2021/03/01 02:03:40;;;;;;;21.58;7.85;;;5.60;83.50;;;;;;4981176;28;20034;-59
2021/03/01 02:06:46;;;;;;;15.10;7.15;;;5.60;83.70;;;;;;4995956;28;20133;-59
2021/03/01 02:09:52;;;;;;;17.10;8.45;;;5.60;83.70;;;;;;4946592;28;20085;-59
2021/03/01 02:12:33;;;;;;;23.00;8.63;;;5.60;83.80;;;;;;4896355;29;20780;-60
2021/03/01 02:15:08;;;;;;;16.65;7.28;;;5.60;83.80;;;;;;4989682;28;20058;-59
2021/03/01 02:17:34;;;;;;;20.63;8.15;;;5.60;84.00;;;;;;4995773;28;20044;-60
2021/03/01 02:20:00;;;;;;;25.20;9.70;;;5.50;84.00;;;;;;4995599;28;20433;-59
2021/03/01 02:22:26;;;;;;;19.30;9.50;;;5.60;84.00;;;;;;4995500;28;20092;-59
2021/03/01 02:25:15;;;;;;;22.25;8.80;;;5.60;83.90;;;;;;4996055;28;20045;-59
2021/03/01 02:27:49;;;;;;;20.80;8.50;;;5.60;84.30;;;;;;4994073;28;20037;-59
2021/03/01 02:30:36;;;;;;;16.25;8.43;;;5.60;84.00;;;;;;4996112;28;20103;-60
2021/03/01 02:33:04;;;;;;;;;;;5.60;84.20;;;;;;4995992;28;20514;-59
2021/03/01 02:35:33;;;;;;;16.85;7.53;;;5.50;83.70;;;;;;4990355;28;19920;-60
2021/03/01 02:38:02;;;;;;;14.38;7.60;;;5.60;84.30;;;;;;4995619;28;20057;-59
2021/03/01 02:40:29;;;;;;;19.10;7.97;;;5.60;84.00;;;;;;4995293;28;20050;-60
2021/03/01 02:42:56;;;;;;;15.95;8.32;;;5.60;83.90;;;;;;4995381;28;20062;-60
2021/03/01 02:45:23;;;;;;;15.85;8.23;;;5.60;83.70;;;;;;4995341;28;20080;-59
2021/03/01 02:47:48;;;;;;;15.35;7.82;;;5.60;84.10;;;;;;4994956;28;20049;-59
2021/03/01 02:50:15;;;;;;;15.27;7.38;;;5.60;83.60;;;;;;4995318;28;20026;-59
2021/03/01 02:52:42;;;;;;;14.63;7.30;;;5.60;83.50;;;;;;4995153;28;20037;-59
2021/03/01 02:55:09;;;;;;;15.07;7.50;;;5.60;83.50;;;;;;4994364;28;20611;-59
2021/03/01 02:57:36;;;;;;;15.48;8.52;;;5.70;83.70;;;;;;4995946;28;20042;-58
2021/03/01 03:00:07;;;;;;;14.65;7.93;;;5.70;83.70;;;;;;4995071;28;20528;-59
2021/03/01 03:02:33;;;;;;;19.15;8.93;;;5.70;83.10;;;;;;4995073;28;20769;-59
2021/03/01 03:05:01;;;;;;;16.55;7.88;;;5.70;83.20;;;;;;4994848;28;20120;-59
2021/03/01 03:07:28;;;;;;;15.15;7.70;;;5.70;82.90;;;;;;4994732;28;20037;-59
2021/03/01 03:09:55;;;;;;;14.25;6.55;;;5.70;83.20;;;;;;4994546;28;20135;-59
2021/03/01 03:12:24;;;;;;;14.85;7.03;;;5.70;82.80;;;;;;4995042;28;20046;-59
2021/03/01 03:14:52;;;;;;;14.82;7.32;;;5.70;83.90;;;;;;4995075;28;20153;-59
2021/03/01 03:17:19;;;;;;;14.65;7.93;;;5.70;83.20;;;;;;4994651;28;20037;-59
2021/03/01 03:19:45;;;;;;;15.00;7.32;;;5.70;83.00;;;;;;4996361;28;20034;-59
2021/03/01 03:22:11;;;;;;;14.57;7.68;;;5.70;83.50;;;;;;4999495;28;20022;-59
2021/03/01 03:24:38;;;;;;;16.38;8.63;;;5.70;82.90;;;;;;5000062;28;20030;-59
2021/03/01 03:27:04;;;;;;;12.90;7.07;;;5.70;83.10;;;;;;5000757;28;20037;-60
2021/03/01 03:29:31;;;;;;;17.27;8.75;;;5.70;83.10;;;;;;5001644;28;20034;-59
2021/03/01 03:31:57;;;;;;;16.70;7.63;;;5.70;83.10;;;;;;5001134;28;20034;-60
2021/03/01 03:34:23;;;;;;;17.13;8.20;;;5.70;82.90;;;;;;5001501;28;20030;-60
2021/03/01 03:37:11;;;;;;;15.35;7.80;;;5.70;83.00;;;;;;5000811;28;20056;-59
2021/03/01 03:39:45;;;;;;;15.65;7.78;;;5.80;83.10;;;;;;5000278;28;20045;-60
2021/03/01 03:42:21;;;;;;;14.57;7.43;;;5.80;83.20;;;;;;5000407;28;20038;-62
2021/03/01 03:44:48;;;;;;;15.85;7.45;;;5.80;83.20;;;;;;4998221;28;20029;-60
2021/03/01 03:47:14;;;;;;;12.90;7.28;;;5.80;83.20;;;;;;4998386;28;20099;-60
2021/03/01 03:49:41;;;;;;;17.58;7.78;;;5.80;83.00;;;;;;4998512;28;20108;-60
2021/03/01 03:52:08;;;;;;;14.40;6.90;;;5.80;83.20;;;;;;4998701;28;20045;-60
2021/03/01 03:54:36;;;;;;;16.42;7.35;;;5.80;83.10;;;;;;4997699;28;20033;-60
2021/03/01 03:57:07;;;;;;;18.00;8.65;;;5.80;82.80;;;;;;4997352;28;20053;-59
2021/03/01 03:59:36;;;;;;;16.92;7.65;;;5.90;82.40;;;;;;4997664;28;20049;-60
2021/03/01 04:02:03;;;;;;;18.40;8.32;;;5.80;82.30;;;;;;4998109;28;20792;-60
2021/03/01 04:04:31;;;;;;;15.85;7.63;;;5.80;82.60;;;;;;4998310;28;20631;-59
2021/03/01 04:07:01;;;;;;;17.23;7.80;;;5.80;82.80;;;;;;4998693;28;20044;-60
2021/03/01 04:09:28;;;;;;;15.20;7.57;;;5.90;82.40;;;;;;4999023;28;20042;-60
2021/03/01 04:11:55;;;;;;;15.57;7.75;;;5.90;82.70;;;;;;4999652;28;20034;-59
2021/03/01 04:14:24;;;;;;;13.05;7.22;;;5.90;82.80;;;;;;4999756;28;20044;-59
2021/03/01 04:16:54;;;;;;;14.25;7.80;;;5.90;82.80;;;;;;4998466;28;20088;-59
2021/03/01 04:19:22;;;;;;;15.43;7.97;;;5.90;82.90;;;;;;4999698;28;20888;-59
2021/03/01 04:21:51;;;;;;;14.68;6.88;;;5.90;82.80;;;;;;4999357;28;20034;-60
2021/03/01 04:24:17;;;;;;;16.90;9.07;;;5.90;82.90;;;;;;4998416;28;20657;-59
2021/03/01 04:26:44;;;;;;;16.40;8.30;;;6.00;82.70;;;;;;4997960;28;20044;-59
2021/03/01 04:29:10;;;;;;;15.90;8.13;;;5.90;82.50;;;;;;4999249;28;20102;-60
2021/03/01 04:31:37;;;;;;;17.38;7.93;;;6.00;81.70;;;;;;4998232;28;20038;-60
2021/03/01 04:34:04;;;;;;;14.45;7.93;;;5.90;82.10;;;;;;4995837;28;20029;-59
2021/03/01 04:36:31;;;;;;;14.00;7.50;;;5.90;82.10;;;;;;4998340;28;20510;-59
2021/03/01 04:38:57;;;;;;;15.32;8.48;;;5.90;82.20;;;;;;4998129;28;20041;-60
2021/03/01 04:41:23;;;;;;;18.20;7.72;;;5.90;82.20;;;;;;4998306;28;20037;-60
2021/03/01 04:43:50;;;;;;;20.55;8.40;;;5.90;82.20;;;;;;4998283;28;20026;-59
2021/03/01 04:46:17;;;;;;;23.95;9.48;;;6.00;82.40;;;;;;4997815;28;20052;-59
2021/03/01 04:48:43;;;;;;;18.27;8.48;;;6.00;82.30;;;;;;4998270;28;20030;-59
2021/03/01 04:51:11;;;;;;;18.33;8.52;;;6.00;82.10;;;;;;4998296;28;20052;-60
2021/03/01 04:53:37;;;;;;;20.58;9.52;;;6.00;82.20;;;;;;4997492;28;20045;-59
2021/03/01 04:56:07;;;;;;;18.65;8.55;;;6.00;81.90;;;;;;4998094;28;20162;-60
2021/03/01 04:58:36;;;;;;;21.63;9.60;;;6.00;81.60;;;;;;4996509;28;20046;-60
2021/03/01 05:01:03;;;;;;;21.55;9.20;;;5.90;81.60;;;;;;4997879;28;20044;-59
2021/03/01 05:03:32;;;;;;;20.52;8.55;;;6.00;81.90;;;;;;4993198;28;20033;-59
2021/03/01 05:06:02;;;;;;;16.55;8.25;;;5.90;81.90;;;;;;4997891;28;20457;-60
2021/03/01 05:08:29;;;;;;;18.15;9.05;;;5.90;82.30;;;;;;4997860;28;20030;-60
2021/03/01 05:10:56;;;;;;;18.90;9.43;;;5.90;82.30;;;;;;4997890;28;20116;-59
2021/03/01 05:13:23;;;;;;;20.38;9.32;;;5.90;82.20;;;;;;4998137;28;20034;-59
2021/03/01 05:15:49;;;;;;;19.92;9.65;;;5.90;82.20;;;;;;4978872;28;20109;-59
2021/03/01 05:18:14;;;;;;;23.80;9.48;;;5.90;82.50;;;;;;4997587;28;20046;-60
2021/03/01 05:20:40;;;;;;;23.15;10.25;;;5.90;82.70;;;;;;4997637;28;21079;-59
2021/03/01 05:23:06;;;;;;;19.17;9.52;;;5.90;82.40;;;;;;4996992;28;20465;-60
2021/03/01 05:25:32;;;;;;;19.75;8.60;;;5.90;82.20;;;;;;4997296;28;20494;-59
2021/03/01 05:27:59;;;;;;;20.98;10.48;;;5.90;81.90;;;;;;4997712;28;20080;-59
2021/03/01 05:30:25;;;;;;;16.98;8.27;;;5.90;82.40;;;;;;4997244;28;20450;-60
2021/03/01 05:32:51;;;;;;;20.90;8.65;;;5.90;82.50;;;;;;4997393;28;20045;-60
2021/03/01 05:35:16;;;;;;;19.13;9.27;;;5.90;83.20;;;;;;4996921;28;20553;-59
2021/03/01 05:37:42;;;;;;;20.50;11.43;;;5.90;82.60;;;;;;4996990;28;20034;-59
2021/03/01 05:40:08;;;;;;;25.55;11.18;;;5.90;82.60;;;;;;4997023;28;20092;-59
2021/03/01 05:42:35;;;;;;;31.45;14.02;;;5.90;82.90;;;;;;4997015;28;20034;-62
2021/03/01 05:45:05;;;;;;;39.17;14.52;;;5.90;82.90;;;;;;4996058;28;20037;-62
2021/03/01 05:47:31;;;;;;;34.22;14.48;;;5.90;82.70;;;;;;4991695;28;20056;-62
2021/03/01 05:49:59;;;;;;;35.05;16.90;;;5.90;82.80;;;;;;4997056;28;20049;-61
2021/03/01 05:52:28;;;;;;;28.85;13.45;;;5.90;83.30;;;;;;4995818;28;20030;-62
2021/03/01 05:54:54;;;;;;;23.20;9.57;;;5.90;83.20;;;;;;4996337;28;20112;-63
2021/03/01 05:57:22;;;;;;;21.15;10.50;;;5.90;83.20;;;;;;4996394;28;20038;-61
2021/03/01 05:59:49;;;;;;;22.63;10.55;;;5.90;83.10;;;;;;4995594;28;20029;-61
2021/03/01 06:02:16;;;;;;;21.02;9.63;;;5.90;83.30;;;;;;4996228;28;20057;-62
2021/03/01 06:04:42;;;;;;;23.88;11.18;;;5.90;83.10;;;;;;4995889;28;20106;-62
2021/03/01 06:07:08;;;;;;;18.40;9.73;;;5.90;82.90;;;;;;5010618;28;20645;-62
2021/03/01 06:09:33;;;;;;;21.83;10.38;;;6.00;83.10;;;;;;4995778;28;20045;-62
2021/03/01 06:11:59;;;;;;;21.38;10.45;;;6.00;83.50;;;;;;5011361;28;20044;-62
2021/03/01 06:14:25;;;;;;;23.00;9.75;;;6.00;83.00;;;;;;4993098;28;20517;-63
2021/03/01 06:17:10;;;;;;;22.50;9.23;;;6.00;83.10;;;;;;4992862;28;20045;-62
2021/03/01 06:19:52;;;;;;;20.83;9.55;;;6.00;82.90;;;;;;4991277;28;20065;-62
2021/03/01 06:22:23;;;;;;;19.75;9.95;;;6.10;83.00;;;;;;4994247;28;20437;-62
2021/03/01 06:25:12;;;;;;;20.08;9.50;;;6.10;83.00;;;;;;4995063;28;20034;-63
2021/03/01 06:27:59;;;;;;;23.15;9.98;;;6.10;82.60;;;;;;4991744;28;20485;-62
2021/03/01 06:30:26;;;;;;;22.10;10.10;;;6.10;82.80;;;;;;4992592;28;20071;-62
2021/03/01 06:33:15;;;;;;;22.17;10.07;;;6.20;83.00;;;;;;4995351;28;20029;-63
2021/03/01 06:35:43;;;;;;;19.42;10.02;;;6.20;83.00;;;;;;4995234;28;20128;-62
2021/03/01 06:38:25;;;;;;;17.85;8.90;;;6.20;82.60;;;;;;4991766;28;20038;-63
2021/03/01 06:41:09;;;;;;;21.92;9.88;;;6.20;82.20;;;;;;4995489;28;20573;-64
2021/03/01 06:43:35;;;;;;;22.23;10.23;;;6.30;82.10;;;;;;4991429;28;20141;-62
2021/03/01 06:46:11;;;;;;;22.45;10.48;;;6.30;81.90;;;;;;4995244;28;20053;-62
2021/03/01 06:48:38;;;;;;;25.70;10.93;;;6.30;81.80;;;;;;4995793;28;20084;-62
2021/03/01 06:51:05;;;;;;;22.63;10.57;;;6.20;82.30;;;;;;4995422;28;20049;-62
2021/03/01 06:53:32;;;;;;;24.98;11.18;;;6.20;82.20;;;;;;4987620;28;20045;-62
2021/03/01 06:55:58;;;;;;;22.17;9.98;;;6.20;82.40;;;;;;4994732;28;20029;-63
2021/03/01 06:58:27;;;;;;;22.45;9.98;;;6.20;82.20;;;;;;4994869;28;20212;-63
2021/03/01 07:01:14;;;;;;;24.95;10.18;;;6.20;82.30;;;;;;4995022;28;20029;-62
2021/03/01 07:03:45;;;;;;;22.67;9.52;;;6.30;82.30;;;;;;4991537;28;20025;-62
2021/03/01 07:06:11;;;;;;;25.58;9.88;;;6.30;82.20;;;;;;4975206;28;20045;-62
2021/03/01 07:08:45;;;;;;;26.90;10.57;;;6.30;82.20;;;;;;4994545;28;20041;-62
2021/03/01 07:11:29;;;;;;;22.73;9.45;;;6.30;82.20;;;;;;4995238;28;20051;-63
2021/03/01 07:14:04;;;;;;;22.23;9.40;;;6.40;81.70;;;;;;4994974;28;20176;-62
2021/03/01 07:16:58;;;;;;;21.63;9.73;;;6.40;81.80;;;;;;4994654;28;20033;-63
2021/03/01 07:19:30;;;;;;;19.83;9.45;;;6.50;81.80;;;;;;4994547;28;20121;-62
2021/03/01 07:21:58;;;;;;;23.40;9.95;;;6.60;81.70;;;;;;4994424;28;20084;-62
2021/03/01 07:24:26;;;;;;;27.23;10.88;;;6.60;81.30;;;;;;4994755;28;20034;-62
2021/03/01 07:26:56;;;;;;;21.05;9.43;;;6.70;80.90;;;;;;4994340;28;20646;-63
2021/03/01 07:29:23;;;;;;;21.83;9.93;;;6.70;81.00;;;;;;4994617;28;20124;-62
2021/03/01 07:31:57;;;;;;;24.30;10.85;;;6.80;81.00;;;;;;4995162;28;20046;-62
2021/03/01 07:34:24;;;;;;;23.17;10.35;;;6.80;80.60;;;;;;4990118;28;20210;-63
2021/03/01 07:36:52;;;;;;;21.08;10.32;;;6.80;80.50;;;;;;4994489;28;20041;-62
2021/03/01 07:39:19;;;;;;;22.15;11.38;;;6.80;80.30;;;;;;4995439;28;20133;-63
2021/03/01 07:41:45;;;;;;;20.50;9.85;;;6.90;80.70;;;;;;4995731;28;20099;-63
2021/03/01 07:44:13;;;;;;;25.27;11.55;;;6.90;80.20;;;;;;4995479;28;20042;-63
2021/03/01 07:46:46;;;;;;;23.00;11.00;;;7.00;79.90;;;;;;4995964;28;20152;-63
2021/03/01 07:49:13;;;;;;;24.85;11.68;;;7.00;80.10;;;;;;4994453;28;20057;-63
2021/03/01 07:51:46;;;;;;;24.20;10.50;;;7.10;79.50;;;;;;4996196;28;20558;-63
2021/03/01 07:54:14;;;;;;;26.38;10.52;;;7.10;79.50;;;;;;4997192;28;20042;-63
2021/03/01 07:56:40;;;;;;;26.13;11.73;;;7.20;79.70;;;;;;4993479;28;20088;-67
2021/03/01 07:59:07;;;;;;;23.35;11.52;;;7.30;79.20;;;;;;4994010;28;20038;-64
2021/03/01 08:01:33;;;;;;;24.70;11.45;;;7.30;78.90;;;;;;4994687;28;20033;-63
2021/03/01 08:03:59;;;;;;;23.20;11.65;;;7.30;78.80;;;;;;4994699;28;20076;-64
2021/03/01 08:06:45;;;;;;;21.13;9.68;;;7.30;78.60;;;;;;4993310;28;20857;-63
2021/03/01 08:09:11;;;;;;;23.93;10.83;;;7.40;78.90;;;;;;4994768;28;20050;-63
2021/03/01 08:11:39;;;;;;;22.77;10.70;;;7.40;78.90;;;;;;4997787;28;20279;-63
2021/03/01 08:14:32;;;;;;;24.20;11.27;;;7.50;78.80;;;;;;4997227;28;20679;-66
2021/03/01 08:17:26;;;;;;;23.02;11.02;;;7.60;78.60;;;;;;4996975;28;20026;-62
2021/03/01 08:19:55;;;;;;;23.33;10.82;;;7.70;77.80;;;;;;4995083;28;20095;-63
2021/03/01 08:22:21;;;;;;;20.88;10.20;;;7.80;77.80;;;;;;4998124;28;20034;-61
2021/03/01 08:24:51;;;;;;;23.73;11.60;;;7.80;77.70;;;;;;4998987;28;20125;-63
2021/03/01 08:27:26;;;;;;;22.20;11.43;;;7.80;77.40;;;;;;4999226;28;20562;-60
2021/03/01 08:30:23;;;;;;;26.92;12.38;;;7.80;76.50;;;;;;4998671;28;20034;-59
2021/03/01 08:33:25;;;;;;;26.52;13.70;;;7.90;76.50;;;;;;4994176;28;20034;-60
2021/03/01 08:35:52;;;;;;;24.63;11.85;;;7.90;77.10;;;;;;4953889;28;20786;-60
2021/03/01 08:38:40;;;;;;;27.23;12.85;;;8.00;77.20;;;;;;4998656;28;20552;-60
2021/03/01 08:41:07;;;;;;;27.48;12.57;;;8.00;76.40;;;;;;4998101;28;20145;-60
2021/03/01 08:43:37;;;;;;;26.38;11.93;;;8.00;76.70;;;;;;4997971;28;20033;-60
2021/03/01 08:46:07;;;;;;;22.60;12.00;;;8.10;76.50;;;;;;4998335;28;20593;-59
2021/03/01 08:48:39;;;;;;;39.38;16.85;;;8.10;76.00;;;;;;4997990;28;20034;-60
2021/03/01 08:51:05;;;;;;;37.35;17.05;;;8.20;75.30;;;;;;4997398;28;20038;-60
2021/03/01 08:53:31;;;;;;;23.83;11.25;;;8.30;75.50;;;;;;4998066;28;20697;-60
2021/03/01 08:55:59;;;;;;;22.77;9.77;;;8.30;75.50;;;;;;4997815;28;20034;-63
2021/03/01 08:58:30;;;;;;;22.77;11.38;;;8.40;75.30;;;;;;4996941;28;20038;-60
2021/03/01 09:01:00;;;;;;;25.00;11.00;;;8.40;74.00;;;;;;4998195;28;20228;-62
2021/03/01 09:03:32;;;;;;;21.98;10.50;;;8.30;74.60;;;;;;4979622;28;20400;-59
2021/03/01 09:06:07;;;;;;;23.88;11.77;;;8.30;75.00;;;;;;4994680;28;20057;-59
2021/03/01 09:08:35;;;;;;;23.48;11.57;;;8.30;74.80;;;;;;4996954;28;20041;-59
2021/03/01 09:11:05;;;;;;;22.98;10.88;;;8.30;74.30;;;;;;4997642;28;20053;-59
2021/03/01 09:13:34;;;;;;;26.58;11.02;;;8.20;75.40;;;;;;4991999;28;20034;-60
2021/03/01 09:16:11;;;;;;;23.63;10.93;;;8.30;75.80;;;;;;4997460;28;20140;-59
2021/03/01 09:18:39;;;;;;;21.90;10.45;;;8.40;75.10;;;;;;4997238;28;20048;-59
2021/03/01 09:21:06;;;;;;;22.25;10.68;;;8.50;74.50;;;;;;4979204;28;20082;-60
2021/03/01 09:23:46;;;;;;;21.80;10.18;;;8.60;73.30;;;;;;4996927;28;20482;-59
2021/03/01 09:26:20;;;;;;;20.77;9.30;;;8.60;72.70;;;;;;4997062;28;20038;-59
2021/03/01 09:28:47;;;;;;;12.95;6.63;;;8.70;74.20;;;;;;4996373;28;20030;-59
2021/03/01 09:31:14;;;;;;;13.68;6.15;;;8.70;73.00;;;;;;4995662;28;20061;-61
2021/03/01 09:33:41;;;;;;;11.18;5.80;;;8.80;69.80;;;;;;4978574;28;20137;-60
2021/03/01 09:36:08;;;;;;;10.68;5.63;;;8.90;68.10;;;;;;4995122;28;20071;-59
2021/03/01 09:38:36;;;;;;;13.32;6.50;;;8.90;68.50;;;;;;4978260;28;20034;-62
2021/03/01 09:41:11;;;;;;;15.75;6.85;;;9.00;69.00;;;;;;4977130;28;20733;-61
2021/03/01 09:43:38;;;;;;;11.55;5.93;;;9.00;68.70;;;;;;4991125;28;20601;-62
2021/03/01 09:46:05;;;;;;;10.45;5.90;;;9.00;68.50;;;;;;4994361;28;20483;-62
2021/03/01 09:48:40;;;;;;;13.32;6.55;;;9.10;67.10;;;;;;4977427;28;20065;-62
2021/03/01 09:51:07;;;;;;;14.50;7.38;;;9.00;67.80;;;;;;4994583;28;20033;-63
2021/03/01 09:53:34;;;;;;;19.42;10.63;;;9.10;68.50;;;;;;4995824;28;20438;-62
2021/03/01 09:56:00;;;;;;;20.70;12.52;;;9.10;68.90;;;;;;4979660;28;20052;-63
2021/03/01 09:58:27;;;;;;;16.95;8.50;;;9.20;67.30;;;;;;4996781;28;20037;-62
2021/03/01 10:01:03;;;;;;;14.60;7.45;;;9.10;67.80;;;;;;4997909;28;20037;-62
2021/03/01 10:03:33;;;;;;;;;;;9.10;67.30;;;;;;4997556;28;20046;-62
2021/03/01 10:05:59;;;;;;;11.23;6.15;;;9.00;67.40;;;;;;4994382;28;20304;-61
2021/03/01 10:08:25;;;;;;;14.43;6.00;;;9.10;67.70;;;;;;4995051;28;20041;-61
2021/03/01 10:10:52;;;;;;;14.40;6.82;;;9.20;68.20;;;;;;4995371;28;20542;-66
2021/03/01 10:13:29;;;;;;;11.82;7.05;;;9.30;67.20;;;;;;4991687;28;20169;-62
2021/03/01 10:15:55;;;;;;;11.80;6.38;;;9.30;67.80;;;;;;4994447;28;20037;-61
2021/03/01 10:18:27;;;;;;;14.63;6.82;;;9.50;67.00;;;;;;4994191;28;20068;-62
2021/03/01 10:20:58;;;;;;;13.38;6.50;;;9.30;66.10;;;;;;4994165;28;20168;-62
2021/03/01 10:23:38;;;;;;;13.57;6.22;;;9.30;66.80;;;;;;4994324;28;20133;-62
2021/03/01 10:26:19;;;;;;;10.82;6.20;;;9.30;67.80;;;;;;4993992;28;20038;-62
2021/03/01 10:29:00;;;;;;;12.65;6.05;;;9.40;66.00;;;;;;4993045;28;20048;-62
2021/03/01 10:31:35;;;;;;;12.88;6.72;;;9.50;65.00;;;;;;4993559;28;20145;-61
2021/03/01 10:34:02;;;;;;;11.40;5.90;;;9.50;65.80;;;;;;4994385;28;20041;-62
2021/03/01 10:36:51;;;;;;;8.85;5.28;;;9.50;64.40;;;;;;4993355;28;20045;-61
2021/03/01 10:39:23;;;;;;;10.52;5.82;;;9.50;65.70;;;;;;4992457;28;20026;-62
2021/03/01 10:41:51;;;;;;;14.52;7.05;;;9.60;65.60;;;;;;4994606;28;20091;-62
2021/03/01 10:44:25;;;;;;;12.95;5.78;;;9.70;65.30;;;;;;4995023;28;20057;-62
2021/03/01 10:46:51;;;;;;;12.38;6.68;;;9.60;64.30;;;;;;4994328;28;20049;-62
2021/03/01 10:49:29;;;;;;;12.30;6.95;;;9.40;66.10;;;;;;4994045;28;20097;-62
2021/03/01 10:51:56;;;;;;;13.27;6.60;;;9.40;67.30;;;;;;4994511;28;20489;-62
2021/03/01 10:54:23;;;;;;;80.47;48.70;;;9.40;67.00;;;;;;4976641;28;20100;-60
2021/03/01 10:56:49;;;;;;;39.70;21.60;;;9.40;65.70;;;;;;4994563;28;20100;-59
2021/03/01 10:59:15;;;;;;;9.77;6.15;;;9.50;66.00;;;;;;4993871;28;20744;-59
2021/03/01 11:01:45;;;;;;;12.57;7.45;;;9.50;65.90;;;;;;4977615;28;20525;-59
2021/03/01 11:04:13;;;;;;;13.27;6.80;;;9.40;66.10;;;;;;4975039;28;20026;-59
2021/03/01 11:06:39;;;;;;;13.05;6.88;;;9.50;65.90;;;;;;4995424;28;20474;-60
2021/03/01 11:09:08;;;;;;;15.65;7.90;;;9.60;65.90;;;;;;4995590;28;20037;-59
2021/03/01 11:11:34;;;;;;;14.93;7.43;;;9.60;66.10;;;;;;4994714;28;20115;-59
2021/03/01 11:14:00;;;;;;;12.90;7.93;;;9.60;65.50;;;;;;4995528;28;20107;-61
2021/03/01 11:16:25;;;;;;;10.70;6.90;;;9.60;65.50;;;;;;4994362;28;20034;-62
2021/03/01 11:18:51;;;;;;;12.77;7.05;;;9.50;64.50;;;;;;4993161;28;20552;-62
2021/03/01 11:21:17;;;;;;;11.98;7.00;;;9.50;65.10;;;;;;4991801;28;20034;-62
2021/03/01 11:23:43;;;;;;;13.57;7.32;;;9.60;65.50;;;;;;4994015;28;20030;-62
2021/03/01 11:26:09;;;;;;;16.50;7.55;;;9.70;65.40;;;;;;4991536;28;20609;-62
2021/03/01 11:28:35;;;;;;;14.45;7.30;;;9.70;63.80;;;;;;4994270;28;20077;-62
2021/03/01 11:31:01;;;;;;;12.23;7.28;;;9.60;63.40;;;;;;4995335;28;20117;-62
2021/03/01 11:33:27;;;;;;;12.30;6.82;;;9.60;64.60;;;;;;4994940;28;20903;-62
2021/03/01 11:35:54;;;;;;;12.38;5.88;;;9.70;65.70;;;;;;4995075;28;20034;-62
2021/03/01 11:38:25;;;;;;;12.90;6.97;;;9.80;64.60;;;;;;4995189;28;20030;-62
2021/03/01 11:40:51;;;;;;;12.95;5.97;;;9.90;64.80;;;;;;4994809;28;20046;-62
2021/03/01 11:43:18;;;;;;;10.52;5.30;;;10.00;64.30;;;;;;4998317;28;20087;-61
2021/03/01 11:45:44;;;;;;;13.50;5.90;;;10.00;62.10;;;;;;4998470;28;20087;-62
2021/03/01 11:48:11;;;;;;;12.55;6.32;;;10.00;64.70;;;;;;4998876;28;20034;-62
2021/03/01 11:50:42;;;;;;;14.55;7.22;;;10.10;63.80;;;;;;4998525;28;20048;-62
2021/03/01 11:53:08;;;;;;;15.18;7.28;;;10.00;64.00;;;;;;4998592;28;20038;-62
2021/03/01 11:55:34;;;;;;;10.07;6.22;;;10.10;65.50;;;;;;4997912;28;20045;-61
2021/03/01 11:58:00;;;;;;;11.52;6.22;;;10.20;65.70;;;;;;4999084;28;20034;-62
2021/03/01 12:00:26;;;;;;;14.05;6.75;;;10.30;64.10;;;;;;4998076;28;20088;-61
2021/03/01 12:02:52;;;;;;;12.68;5.80;;;10.30;63.10;;;;;;4998520;28;20038;-62
2021/03/01 12:05:18;;;;;;;17.40;6.70;;;10.20;64.00;;;;;;4998506;28;20096;-61
2021/03/01 12:07:44;;;;;;;10.27;5.50;;;10.20;64.00;;;;;;4998147;28;20053;-61
2021/03/01 12:10:11;;;;;;;12.73;6.00;;;10.00;63.90;;;;;;4997919;28;20168;-62
2021/03/01 12:12:37;;;;;;;13.63;6.45;;;9.90;63.70;;;;;;4998416;28;20509;-63
2021/03/01 12:15:04;;;;;;;18.90;7.10;;;9.70;63.80;;;;;;4998369;28;20038;-65
2021/03/01 12:17:29;;;;;;;12.07;5.88;;;9.60;65.30;;;;;;4998657;28;20026;-62
2021/03/01 12:19:55;;;;;;;11.73;6.30;;;9.60;64.20;;;;;;4998060;28;20482;-61
2021/03/01 12:22:21;;;;;;;12.85;6.40;;;9.60;64.90;;;;;;4998311;28;20045;-61
2021/03/01 12:24:47;;;;;;;9.55;5.78;;;9.50;65.40;;;;;;4998484;28;20800;-61
2021/03/01 12:27:12;;;;;;;14.07;6.97;;;9.30;64.60;;;;;;4997650;28;20088;-62
2021/03/01 12:29:38;;;;;;;10.13;5.85;;;9.30;65.50;;;;;;4979983;28;20498;-62
2021/03/01 12:32:05;;;;;;;11.15;6.07;;;9.20;67.20;;;;;;4998897;28;20042;-62
2021/03/01 12:34:31;;;;;;;11.50;5.88;;;9.20;67.10;;;;;;4992656;28;20038;-61
2021/03/01 12:36:56;;;;;;;12.23;6.45;;;9.10;67.90;;;;;;4998202;28;20056;-61
2021/03/01 12:39:22;;;;;;;9.95;5.28;;;9.00;68.10;;;;;;4997693;28;20038;-61
2021/03/01 12:41:48;;;;;;;10.32;5.43;;;9.00;67.40;;;;;;4998109;28;20056;-61
2021/03/01 12:44:14;;;;;;;13.02;6.25;;;9.00;67.20;;;;;;4997501;28;20042;-61
2021/03/01 12:46:39;;;;;;;12.80;6.22;;;9.00;68.40;;;;;;4998090;28;20225;-62
2021/03/01 12:49:05;;;;;;;15.68;6.53;;;9.10;68.80;;;;;;4996892;28;20028;-62
2021/03/01 12:51:31;;;;;;;12.98;6.18;;;9.20;69.00;;;;;;4998458;28;20524;-62
2021/03/01 12:53:57;;;;;;;13.60;5.85;;;9.30;69.30;;;;;;4980167;28;20115;-62
2021/03/01 12:56:23;;;;;;;12.23;6.00;;;9.30;66.80;;;;;;4997193;28;20081;-62